sensor_id;sensor_type;location;lat;lon;timestamp;pressure;altitude;pressure_sealevel;temperature;humidity
69200;BME280;56313;49.804;9.952;2022-11-20T09:49:56;98776.91;;;0.94;93.30
69200;BME280;56313;49.804;9.952;2022-11-20T09:52:37;98782.22;;;0.78;92.08
69200;BME280;56313;49.804;9.952;2022-11-20T09:55:10;98771.66;;;0.68;91.97
69200;BME280;56313;49.804;9.952;2022-11-20T09:57:40;98776.72;;;0.69;92.20
69200;BME280;56313;49.804;9.952;2022-11-20T10:00:09;98781.41;;;0.77;92.20
69200;BME280;56313;49.804;9.952;2022-11-20T10:05:52;98776.78;;;1.10;92.68
69200;BME280;56313;49.804;9.952;2022-11-20T10:08:24;98770.22;;;1.19;92.68
69200;BME280;56313;49.804;9.952;2022-11-20T10:11:13;98766.50;;;1.23;91.19
69200;BME280;56313;49.804;9.952;2022-11-20T10:13:52;98761.66;;;1.44;91.56
69200;BME280;56313;49.804;9.952;2022-11-20T10:30:16;98733.94;;;1.87;89.93
69200;BME280;56313;49.804;9.952;2022-11-20T10:32:46;98731.44;;;1.98;90.15
69200;BME280;56313;49.804;9.952;2022-11-20T10:35:28;98732.38;;;1.97;91.15
69200;BME280;56313;49.804;9.952;2022-11-20T10:38:00;98726.69;;;1.66;89.59
69200;BME280;56313;49.804;9.952;2022-11-20T10:40:47;98721.84;;;1.61;90.00
69200;BME280;56313;49.804;9.952;2022-11-20T10:43:18;98724.94;;;1.67;91.07
69200;BME280;56313;49.804;9.952;2022-11-20T10:45:49;98728.75;;;2.00;90.71
69200;BME280;56313;49.804;9.952;2022-11-20T10:48:21;98728.34;;;1.80;90.51
69200;BME280;56313;49.804;9.952;2022-11-20T10:51:03;98719.97;;;1.89;90.96
69200;BME280;56313;49.804;9.952;2022-11-20T10:53:47;98730.69;;;1.96;90.66
69200;BME280;56313;49.804;9.952;2022-11-20T10:56:19;98726.84;;;2.15;91.22
69200;BME280;56313;49.804;9.952;2022-11-20T10:59:02;98723.19;;;2.31;91.29
69200;BME280;56313;49.804;9.952;2022-11-20T11:01:28;98715.84;;;2.37;90.99
69200;BME280;56313;49.804;9.952;2022-11-20T11:03:55;98722.59;;;2.27;89.82
69200;BME280;56313;49.804;9.952;2022-11-20T11:06:34;98719.03;;;2.41;90.56
69200;BME280;56313;49.804;9.952;2022-11-20T11:09:11;98713.97;;;2.39;91.23
69200;BME280;56313;49.804;9.952;2022-11-20T11:11:38;98718.75;;;2.33;90.45
69200;BME280;56313;49.804;9.952;2022-11-20T11:14:14;98715.06;;;2.24;90.61
69200;BME280;56313;49.804;9.952;2022-11-20T11:16:54;98710.16;;;2.32;90.71
69200;BME280;56313;49.804;9.952;2022-11-20T11:19:20;98710.00;;;2.47;91.02
69200;BME280;56313;49.804;9.952;2022-11-20T11:21:52;98704.19;;;2.56;91.03
69200;BME280;56313;49.804;9.952;2022-11-20T11:24:25;98705.81;;;2.70;90.26
69200;BME280;56313;49.804;9.952;2022-11-20T11:26:57;98687.03;;;2.55;90.54
69200;BME280;56313;49.804;9.952;2022-11-20T11:29:24;98695.66;;;2.43;90.45
69200;BME280;56313;49.804;9.952;2022-11-20T11:32:03;98695.44;;;2.46;90.40
69200;BME280;56313;49.804;9.952;2022-11-20T11:34:29;98698.91;;;2.58;90.94
69200;BME280;56313;49.804;9.952;2022-11-20T11:36:57;98702.81;;;2.63;91.11
69200;BME280;56313;49.804;9.952;2022-11-20T11:39:23;98691.28;;;2.81;91.12
69200;BME280;56313;49.804;9.952;2022-11-20T11:41:50;98700.06;;;2.78;90.87
69200;BME280;56313;49.804;9.952;2022-11-20T11:44:32;98690.50;;;2.67;90.37
69200;BME280;56313;49.804;9.952;2022-11-20T11:47:26;98692.84;;;2.95;90.87
69200;BME280;56313;49.804;9.952;2022-11-20T11:52:59;98693.97;;;2.79;91.56
69200;BME280;56313;49.804;9.952;2022-11-20T11:55:36;98697.00;;;2.73;90.69
69200;BME280;56313;49.804;9.952;2022-11-20T11:58:38;98684.94;;;2.60;90.70
69200;BME280;56313;49.804;9.952;2022-11-20T12:00:58;98688.53;;;2.82;91.50
69200;BME280;56313;49.804;9.952;2022-11-20T12:03:38;98687.16;;;2.53;90.97
69200;BME280;56313;49.804;9.952;2022-11-20T12:06:12;98684.34;;;2.57;91.07
69200;BME280;56313;49.804;9.952;2022-11-20T12:11:29;98676.56;;;2.81;92.28
69200;BME280;56313;49.804;9.952;2022-11-20T12:14:01;98683.78;;;2.64;91.33
69200;BME280;56313;49.804;9.952;2022-11-20T12:16:29;98676.53;;;2.70;91.44
69200;BME280;56313;49.804;9.952;2022-11-20T12:18:57;98676.38;;;2.60;91.56
69200;BME280;56313;49.804;9.952;2022-11-20T12:24:10;98666.84;;;2.60;91.16
69200;BME280;56313;49.804;9.952;2022-11-20T12:39:55;98672.88;;;2.97;91.56
69200;BME280;56313;49.804;9.952;2022-11-20T13:02:05;98658.22;;;3.43;91.20
69200;BME280;56313;49.804;9.952;2022-11-20T13:05:06;98656.69;;;3.29;90.92
69200;BME280;56313;49.804;9.952;2022-11-20T13:07:35;98664.41;;;3.06;90.45
69200;BME280;56313;49.804;9.952;2022-11-20T13:10:02;98658.53;;;3.15;91.10
69200;BME280;56313;49.804;9.952;2022-11-20T13:12:31;98658.44;;;3.28;91.08
69200;BME280;56313;49.804;9.952;2022-11-20T13:15:05;98664.88;;;3.00;90.85
69200;BME280;56313;49.804;9.952;2022-11-20T13:20:18;98663.22;;;2.99;90.59
69200;BME280;56313;49.804;9.952;2022-11-20T13:22:49;98657.69;;;3.03;91.04
69200;BME280;56313;49.804;9.952;2022-11-20T13:25:30;98657.56;;;2.94;91.39
69200;BME280;56313;49.804;9.952;2022-11-20T13:27:58;98657.16;;;2.87;91.83
69200;BME280;56313;49.804;9.952;2022-11-20T13:30:28;98654.53;;;3.00;92.15
69200;BME280;56313;49.804;9.952;2022-11-20T13:33:37;98649.53;;;2.85;91.77
69200;BME280;56313;49.804;9.952;2022-11-20T13:35:42;98648.53;;;3.11;92.11
69200;BME280;56313;49.804;9.952;2022-11-20T13:38:14;98635.47;;;3.12;91.92
69200;BME280;56313;49.804;9.952;2022-11-20T13:41:00;98639.13;;;2.98;91.38
69200;BME280;56313;49.804;9.952;2022-11-20T13:43:47;98634.31;;;3.16;91.70
69200;BME280;56313;49.804;9.952;2022-11-20T13:46:13;98629.72;;;3.09;91.77
69200;BME280;56313;49.804;9.952;2022-11-20T13:48:43;98638.91;;;3.24;91.59
69200;BME280;56313;49.804;9.952;2022-11-20T13:56:47;98650.81;;;3.61;91.36
69200;BME280;56313;49.804;9.952;2022-11-20T13:59:32;98647.16;;;3.64;91.69
69200;BME280;56313;49.804;9.952;2022-11-20T14:02:01;98639.41;;;3.64;91.41
69200;BME280;56313;49.804;9.952;2022-11-20T14:04:33;98646.38;;;4.63;87.63
69200;BME280;56313;49.804;9.952;2022-11-20T14:07:00;98643.75;;;3.75;89.79
69200;BME280;56313;49.804;9.952;2022-11-20T14:09:30;98646.38;;;3.63;90.01
69200;BME280;56313;49.804;9.952;2022-11-20T14:11:56;98638.81;;;3.60;90.69
69200;BME280;56313;49.804;9.952;2022-11-20T14:14:27;98634.44;;;3.84;90.02
69200;BME280;56313;49.804;9.952;2022-11-20T14:17:08;98644.47;;;3.65;89.94
69200;BME280;56313;49.804;9.952;2022-11-20T14:19:34;98632.56;;;3.97;88.96
69200;BME280;56313;49.804;9.952;2022-11-20T14:24:45;98645.19;;;3.67;90.20
69200;BME280;56313;49.804;9.952;2022-11-20T14:27:21;98640.94;;;3.55;90.72
69200;BME280;56313;49.804;9.952;2022-11-20T14:29:49;98635.75;;;3.55;90.73
69200;BME280;56313;49.804;9.952;2022-11-20T14:32:17;98635.19;;;3.51;91.79
69200;BME280;56313;49.804;9.952;2022-11-20T14:34:44;98634.47;;;3.49;91.85
69200;BME280;56313;49.804;9.952;2022-11-20T14:37:12;98633.44;;;3.52;91.80
69200;BME280;56313;49.804;9.952;2022-11-20T14:39:48;98616.09;;;3.52;91.81
69200;BME280;56313;49.804;9.952;2022-11-20T14:42:26;98611.38;;;3.46;92.23
69200;BME280;56313;49.804;9.952;2022-11-20T14:44:55;98609.84;;;3.44;91.84
69200;BME280;56313;49.804;9.952;2022-11-20T14:47:23;98608.34;;;3.41;92.51
69200;BME280;56313;49.804;9.952;2022-11-20T14:49:50;98608.09;;;3.44;92.55
69200;BME280;56313;49.804;9.952;2022-11-20T14:52:19;98615.03;;;3.32;92.72
69200;BME280;56313;49.804;9.952;2022-11-20T14:54:49;98613.75;;;3.49;93.04
69200;BME280;56313;49.804;9.952;2022-11-20T14:57:30;98605.28;;;3.47;92.63
69200;BME280;56313;49.804;9.952;2022-11-20T15:02:44;98597.28;;;3.50;92.52
69200;BME280;56313;49.804;9.952;2022-11-20T15:05:11;98591.28;;;3.50;92.57
69200;BME280;56313;49.804;9.952;2022-11-20T15:07:39;98590.78;;;3.45;92.51
69200;BME280;56313;49.804;9.952;2022-11-20T15:10:13;98579.63;;;3.44;92.16
69200;BME280;56313;49.804;9.952;2022-11-20T15:12:40;98585.63;;;3.33;92.01
69200;BME280;56313;49.804;9.952;2022-11-20T15:15:10;98580.94;;;3.38;91.73
69200;BME280;56313;49.804;9.952;2022-11-20T15:17:38;98587.75;;;3.39;92.11
69200;BME280;56313;49.804;9.952;2022-11-20T15:20:13;98588.69;;;3.38;92.42
69200;BME280;56313;49.804;9.952;2022-11-20T15:22:40;98587.03;;;3.37;92.40
69200;BME280;56313;49.804;9.952;2022-11-20T15:25:14;98589.72;;;3.36;92.92
69200;BME280;56313;49.804;9.952;2022-11-20T15:27:41;98579.16;;;3.50;93.17
69200;BME280;56313;49.804;9.952;2022-11-20T15:30:15;98587.03;;;3.37;92.83
69200;BME280;56313;49.804;9.952;2022-11-20T15:32:42;98580.66;;;3.30;93.38
69200;BME280;56313;49.804;9.952;2022-11-20T15:35:08;98576.66;;;3.37;93.14
69200;BME280;56313;49.804;9.952;2022-11-20T15:37:35;98569.38;;;3.42;92.76
69200;BME280;56313;49.804;9.952;2022-11-20T15:40:01;98564.44;;;3.39;92.65
69200;BME280;56313;49.804;9.952;2022-11-20T15:42:27;98563.16;;;3.34;93.20
69200;BME280;56313;49.804;9.952;2022-11-20T15:44:52;98557.84;;;3.47;93.22
69200;BME280;56313;49.804;9.952;2022-11-20T15:47:18;98557.13;;;3.56;93.81
69200;BME280;56313;49.804;9.952;2022-11-20T15:49:45;98563.97;;;3.46;93.52
69200;BME280;56313;49.804;9.952;2022-11-20T15:52:10;98563.94;;;3.34;93.69
69200;BME280;56313;49.804;9.952;2022-11-20T15:54:36;98552.66;;;3.12;94.48
69200;BME280;56313;49.804;9.952;2022-11-20T15:57:01;98563.13;;;3.22;94.85
69200;BME280;56313;49.804;9.952;2022-11-20T15:59:28;98548.66;;;3.20;94.68
69200;BME280;56313;49.804;9.952;2022-11-20T16:01:56;98549.03;;;3.26;94.74
69200;BME280;56313;49.804;9.952;2022-11-20T16:04:21;98560.88;;;3.06;94.90
69200;BME280;56313;49.804;9.952;2022-11-20T16:06:47;98555.47;;;3.09;95.50
69200;BME280;56313;49.804;9.952;2022-11-20T16:09:12;98549.03;;;3.26;95.85
69200;BME280;56313;49.804;9.952;2022-11-20T16:11:38;98558.56;;;3.49;95.46
69200;BME280;56313;49.804;9.952;2022-11-20T16:14:05;98554.78;;;3.53;94.99
69200;BME280;56313;49.804;9.952;2022-11-20T16:16:49;98549.59;;;3.53;94.35
69200;BME280;56313;49.804;9.952;2022-11-20T16:19:16;98551.00;;;3.57;94.22
69200;BME280;56313;49.804;9.952;2022-11-20T16:21:43;98535.69;;;3.54;94.19
69200;BME280;56313;49.804;9.952;2022-11-20T16:24:11;98534.28;;;3.61;94.15
69200;BME280;56313;49.804;9.952;2022-11-20T16:26:38;98534.19;;;3.51;93.91
69200;BME280;56313;49.804;9.952;2022-11-20T16:29:05;98526.75;;;3.58;94.30
69200;BME280;56313;49.804;9.952;2022-11-20T16:31:31;98518.75;;;3.50;94.03
69200;BME280;56313;49.804;9.952;2022-11-20T16:34:01;98519.22;;;3.44;94.41
69200;BME280;56313;49.804;9.952;2022-11-20T16:36:27;98525.38;;;3.42;94.29
69200;BME280;56313;49.804;9.952;2022-11-20T16:38:55;98527.97;;;3.31;93.97
69200;BME280;56313;49.804;9.952;2022-11-20T16:41:21;98529.00;;;3.28;95.27
69200;BME280;56313;49.804;9.952;2022-11-20T16:43:52;98529.59;;;3.32;94.90
69200;BME280;56313;49.804;9.952;2022-11-20T16:46:19;98531.84;;;3.37;95.19
69200;BME280;56313;49.804;9.952;2022-11-20T16:48:52;98523.22;;;3.48;94.59
69200;BME280;56313;49.804;9.952;2022-11-20T16:51:18;98527.00;;;3.44;94.60
69200;BME280;56313;49.804;9.952;2022-11-20T16:53:43;98518.66;;;3.40;94.38
69200;BME280;56313;49.804;9.952;2022-11-20T16:56:13;98519.94;;;3.34;94.87
69200;BME280;56313;49.804;9.952;2022-11-20T16:58:44;98525.13;;;3.34;94.61
69200;BME280;56313;49.804;9.952;2022-11-20T17:01:13;98522.19;;;3.39;94.47
69200;BME280;56313;49.804;9.952;2022-11-20T17:03:40;98515.13;;;3.18;94.47
69200;BME280;56313;49.804;9.952;2022-11-20T17:06:17;98515.59;;;3.12;94.57
69200;BME280;56313;49.804;9.952;2022-11-20T17:08:44;98513.25;;;2.97;94.82
69200;BME280;56313;49.804;9.952;2022-11-20T17:11:12;98511.50;;;2.98;95.34
69200;BME280;56313;49.804;9.952;2022-11-20T17:13:41;98510.09;;;3.05;95.58
69200;BME280;56313;49.804;9.952;2022-11-20T17:16:11;98508.69;;;3.01;95.58
69200;BME280;56313;49.804;9.952;2022-11-20T17:18:37;98506.91;;;3.13;95.75
69200;BME280;56313;49.804;9.952;2022-11-20T17:21:04;98510.69;;;3.09;95.89
69200;BME280;56313;49.804;9.952;2022-11-20T17:23:34;98502.81;;;3.10;95.65
69200;BME280;56313;49.804;9.952;2022-11-20T17:26:05;98503.84;;;3.08;95.74
69200;BME280;56313;49.804;9.952;2022-11-20T17:28:32;98494.06;;;3.23;96.07
69200;BME280;56313;49.804;9.952;2022-11-20T17:30:59;98501.50;;;3.27;95.34
69200;BME280;56313;49.804;9.952;2022-11-20T17:33:24;98489.94;;;3.32;95.12
69200;BME280;56313;49.804;9.952;2022-11-20T17:35:50;98491.16;;;3.16;94.82
69200;BME280;56313;49.804;9.952;2022-11-20T17:38:15;98485.84;;;3.29;95.39
69200;BME280;56313;49.804;9.952;2022-11-20T17:40:41;98486.53;;;3.20;95.18
69200;BME280;56313;49.804;9.952;2022-11-20T17:43:06;98486.09;;;3.14;95.29
69200;BME280;56313;49.804;9.952;2022-11-20T17:45:34;98479.38;;;3.12;95.63
69200;BME280;56313;49.804;9.952;2022-11-20T17:48:00;98475.28;;;3.21;95.55
69200;BME280;56313;49.804;9.952;2022-11-20T17:50:25;98468.91;;;3.13;95.45
69200;BME280;56313;49.804;9.952;2022-11-20T17:52:51;98470.09;;;3.09;95.80
69200;BME280;56313;49.804;9.952;2022-11-20T17:55:27;98464.34;;;3.06;95.97
69200;BME280;56313;49.804;9.952;2022-11-20T17:58:13;98460.91;;;3.05;96.11
69200;BME280;56313;49.804;9.952;2022-11-20T18:00:38;98453.38;;;3.13;95.62
69200;BME280;56313;49.804;9.952;2022-11-20T18:03:04;98450.91;;;3.12;95.69
69200;BME280;56313;49.804;9.952;2022-11-20T18:05:29;98449.63;;;3.06;95.46
69200;BME280;56313;49.804;9.952;2022-11-20T18:07:54;98447.25;;;3.03;95.59
69200;BME280;56313;49.804;9.952;2022-11-20T18:10:20;98441.97;;;3.04;95.78
69200;BME280;56313;49.804;9.952;2022-11-20T18:12:47;98445.75;;;3.00;96.08
69200;BME280;56313;49.804;9.952;2022-11-20T18:15:13;98433.41;;;3.04;96.01
69200;BME280;56313;49.804;9.952;2022-11-20T18:17:38;98431.63;;;3.04;96.47
69200;BME280;56313;49.804;9.952;2022-11-20T18:20:04;98427.88;;;3.09;95.99
69200;BME280;56313;49.804;9.952;2022-11-20T18:23:06;98422.44;;;3.12;96.07
69200;BME280;56313;49.804;9.952;2022-11-20T18:25:31;98436.31;;;3.11;96.36
69200;BME280;56313;49.804;9.952;2022-11-20T18:27:56;98429.16;;;3.14;96.06
69200;BME280;56313;49.804;9.952;2022-11-20T18:30:22;98431.50;;;3.17;96.03
69200;BME280;56313;49.804;9.952;2022-11-20T18:32:47;98434.41;;;3.24;96.58
69200;BME280;56313;49.804;9.952;2022-11-20T18:35:14;98434.91;;;3.29;96.32
69200;BME280;56313;49.804;9.952;2022-11-20T18:37:39;98434.06;;;3.29;96.23
69200;BME280;56313;49.804;9.952;2022-11-20T18:40:06;98436.28;;;3.22;96.14
69200;BME280;56313;49.804;9.952;2022-11-20T18:42:32;98435.00;;;3.28;96.73
69200;BME280;56313;49.804;9.952;2022-11-20T18:45:16;98426.06;;;3.32;96.53
69200;BME280;56313;49.804;9.952;2022-11-20T18:47:41;98412.88;;;3.35;96.34
69200;BME280;56313;49.804;9.952;2022-11-20T18:50:08;98417.19;;;3.46;95.93
69200;BME280;56313;49.804;9.952;2022-11-20T18:52:38;98410.84;;;3.50;95.01
69200;BME280;56313;49.804;9.952;2022-11-20T18:55:04;98396.34;;;3.48;95.37
69200;BME280;56313;49.804;9.952;2022-11-20T18:57:31;98396.19;;;3.61;95.04
69200;BME280;56313;49.804;9.952;2022-11-20T18:59:57;98391.91;;;3.71;94.80
69200;BME280;56313;49.804;9.952;2022-11-20T19:02:24;98383.69;;;3.66;94.58
69200;BME280;56313;49.804;9.952;2022-11-20T19:04:50;98379.09;;;3.70;94.30
69200;BME280;56313;49.804;9.952;2022-11-20T19:07:16;98379.47;;;3.86;94.04
69200;BME280;56313;49.804;9.952;2022-11-20T19:09:43;98375.25;;;3.85;93.65
69200;BME280;56313;49.804;9.952;2022-11-20T19:12:11;98373.53;;;3.96;92.50
69200;BME280;56313;49.804;9.952;2022-11-20T19:14:36;98363.03;;;3.97;92.18
69200;BME280;56313;49.804;9.952;2022-11-20T19:17:03;98362.91;;;3.99;91.45
69200;BME280;56313;49.804;9.952;2022-11-20T19:19:29;98360.22;;;4.31;90.24
69200;BME280;56313;49.804;9.952;2022-11-20T19:21:54;98351.75;;;5.61;92.56
69200;BME280;56313;49.804;9.952;2022-11-20T19:24:20;98354.41;;;4.39;88.48
69200;BME280;56313;49.804;9.952;2022-11-20T19:26:46;98356.25;;;5.59;86.12
69200;BME280;56313;49.804;9.952;2022-11-20T19:29:14;98353.00;;;5.67;85.66
69200;BME280;56313;49.804;9.952;2022-11-20T19:31:40;98355.38;;;4.89;87.04
69200;BME280;56313;49.804;9.952;2022-11-20T19:34:07;98350.00;;;4.71;86.96
69200;BME280;56313;49.804;9.952;2022-11-20T19:36:34;98350.25;;;4.68;87.14
69200;BME280;56313;49.804;9.952;2022-11-20T19:39:01;98341.25;;;4.31;88.52
69200;BME280;56313;49.804;9.952;2022-11-20T19:41:30;98343.16;;;4.70;89.06
69200;BME280;56313;49.804;9.952;2022-11-20T19:44:09;98346.91;;;6.54;85.51
69200;BME280;56313;49.804;9.952;2022-11-20T19:46:35;98343.41;;;5.18;84.81
69200;BME280;56313;49.804;9.952;2022-11-20T19:49:02;98337.53;;;6.71;87.25
69200;BME280;56313;49.804;9.952;2022-11-20T19:51:30;98337.22;;;5.98;83.82
69200;BME280;56313;49.804;9.952;2022-11-20T19:53:57;98337.13;;;5.50;83.65
69200;BME280;56313;49.804;9.952;2022-11-20T19:56:23;98330.97;;;5.02;84.36
69200;BME280;56313;49.804;9.952;2022-11-20T19:58:56;98322.34;;;5.01;84.35
69200;BME280;56313;49.804;9.952;2022-11-20T20:01:24;98315.22;;;4.93;85.34
69200;BME280;56313;49.804;9.952;2022-11-20T20:03:51;98304.97;;;4.92;87.68
69200;BME280;56313;49.804;9.952;2022-11-20T20:06:22;98301.03;;;7.17;87.00
69200;BME280;56313;49.804;9.952;2022-11-20T20:09:00;98303.47;;;8.78;82.13
69200;BME280;56313;49.804;9.952;2022-11-20T20:11:27;98297.13;;;8.97;75.51
69200;BME280;56313;49.804;9.952;2022-11-20T20:13:53;98301.72;;;7.82;77.49
69200;BME280;56313;49.804;9.952;2022-11-20T20:16:22;98301.00;;;7.98;83.11
69200;BME280;56313;49.804;9.952;2022-11-20T20:18:48;98304.25;;;7.11;77.00
69200;BME280;56313;49.804;9.952;2022-11-20T20:21:15;98293.16;;;7.27;78.94
69200;BME280;56313;49.804;9.952;2022-11-20T20:23:43;98290.25;;;7.30;81.90
69200;BME280;56313;49.804;9.952;2022-11-20T20:26:09;98285.91;;;8.10;81.00
69200;BME280;56313;49.804;9.952;2022-11-20T20:28:36;98283.00;;;8.22;81.50
69200;BME280;56313;49.804;9.952;2022-11-20T20:31:09;98282.28;;;9.81;77.09
69200;BME280;56313;49.804;9.952;2022-11-20T20:33:36;98278.53;;;9.50;77.58
69200;BME280;56313;49.804;9.952;2022-11-20T20:36:03;98283.97;;;10.22;72.99
69200;BME280;56313;49.804;9.952;2022-11-20T20:38:28;98284.38;;;10.51;73.57
69200;BME280;56313;49.804;9.952;2022-11-20T20:40:54;98279.84;;;9.05;77.77
69200;BME280;56313;49.804;9.952;2022-11-20T20:43:19;98277.94;;;10.62;73.97
69200;BME280;56313;49.804;9.952;2022-11-20T20:45:46;98260.22;;;9.67;74.54
69200;BME280;56313;49.804;9.952;2022-11-20T20:48:17;98268.63;;;10.11;75.04
69200;BME280;56313;49.804;9.952;2022-11-20T20:50:54;98275.94;;;9.17;67.85
69200;BME280;56313;49.804;9.952;2022-11-20T20:53:20;98272.19;;;9.11;76.39
69200;BME280;56313;49.804;9.952;2022-11-20T20:55:55;98269.13;;;7.33;79.80
69200;BME280;56313;49.804;9.952;2022-11-20T20:58:21;98265.38;;;7.54;74.41
69200;BME280;56313;49.804;9.952;2022-11-20T21:00:47;98262.28;;;8.20;81.77
69200;BME280;56313;49.804;9.952;2022-11-20T21:03:13;98259.78;;;9.47;78.60
69200;BME280;56313;49.804;9.952;2022-11-20T21:05:39;98250.47;;;9.44;77.52
69200;BME280;56313;49.804;9.952;2022-11-20T21:08:05;98259.03;;;7.57;72.34
69200;BME280;56313;49.804;9.952;2022-11-20T21:10:45;98247.28;;;8.66;76.05
69200;BME280;56313;49.804;9.952;2022-11-20T21:13:11;98245.59;;;8.05;70.38
69200;BME280;56313;49.804;9.952;2022-11-20T21:15:40;98248.53;;;7.75;74.68
69200;BME280;56313;49.804;9.952;2022-11-20T21:18:06;98241.56;;;6.58;76.44
69200;BME280;56313;49.804;9.952;2022-11-20T21:20:31;98239.28;;;8.16;83.00
69200;BME280;56313;49.804;9.952;2022-11-20T21:23:15;98232.69;;;8.46;76.69
69200;BME280;56313;49.804;9.952;2022-11-20T21:25:41;98232.09;;;10.26;74.41
69200;BME280;56313;49.804;9.952;2022-11-20T21:28:07;98228.81;;;8.07;72.35
69200;BME280;56313;49.804;9.952;2022-11-20T21:30:33;98213.88;;;9.44;78.85
69200;BME280;56313;49.804;9.952;2022-11-20T21:33:02;98222.72;;;10.00;70.83
69200;BME280;56313;49.804;9.952;2022-11-20T21:35:32;98223.69;;;9.34;70.87
69200;BME280;56313;49.804;9.952;2022-11-20T21:37:58;98218.63;;;8.22;75.21
69200;BME280;56313;49.804;9.952;2022-11-20T21:40:23;98218.22;;;10.17;75.02
69200;BME280;56313;49.804;9.952;2022-11-20T21:42:48;98213.94;;;9.84;76.19
69200;BME280;56313;49.804;9.952;2022-11-20T21:45:14;98201.97;;;10.62;73.84
69200;BME280;56313;49.804;9.952;2022-11-20T21:47:39;98203.81;;;8.48;78.75
69200;BME280;56313;49.804;9.952;2022-11-20T21:50:05;98201.72;;;10.17;74.63
69200;BME280;56313;49.804;9.952;2022-11-20T21:52:31;98194.75;;;9.44;76.38
69200;BME280;56313;49.804;9.952;2022-11-20T21:54:56;98188.00;;;9.58;77.63
69200;BME280;56313;49.804;9.952;2022-11-20T21:57:21;98185.22;;;9.68;77.08
69200;BME280;56313;49.804;9.952;2022-11-20T21:59:47;98182.03;;;9.89;74.44
69200;BME280;56313;49.804;9.952;2022-11-20T22:02:12;98195.53;;;8.01;70.20
69200;BME280;56313;49.804;9.952;2022-11-20T22:04:38;98187.19;;;10.06;75.86
69200;BME280;56313;49.804;9.952;2022-11-20T22:07:07;98203.28;;;9.86;76.63
69200;BME280;56313;49.804;9.952;2022-11-20T22:09:32;98199.56;;;10.20;74.53
69200;BME280;56313;49.804;9.952;2022-11-20T22:11:57;98200.56;;;7.94;74.77
69200;BME280;56313;49.804;9.952;2022-11-20T22:14:23;98196.53;;;8.60;80.37
69200;BME280;56313;49.804;9.952;2022-11-20T22:16:50;98192.53;;;9.81;75.39
69200;BME280;56313;49.804;9.952;2022-11-20T22:19:17;98195.22;;;9.56;75.59
69200;BME280;56313;49.804;9.952;2022-11-20T22:21:43;98199.28;;;7.98;74.02
69200;BME280;56313;49.804;9.952;2022-11-20T22:24:14;98193.63;;;9.21;78.15
69200;BME280;56313;49.804;9.952;2022-11-20T22:26:41;98195.59;;;10.33;75.53
69200;BME280;56313;49.804;9.952;2022-11-20T22:29:13;98195.38;;;7.94;76.54
69200;BME280;56313;49.804;9.952;2022-11-20T22:31:38;98184.66;;;9.89;76.92
69200;BME280;56313;49.804;9.952;2022-11-20T22:34:04;98188.19;;;9.48;76.78
69200;BME280;56313;49.804;9.952;2022-11-20T22:36:30;98191.09;;;10.18;75.07
69200;BME280;56313;49.804;9.952;2022-11-20T22:38:56;98189.38;;;8.70;73.35
69200;BME280;56313;49.804;9.952;2022-11-20T22:41:26;98183.78;;;10.45;73.90
69200;BME280;56313;49.804;9.952;2022-11-20T22:43:56;98187.00;;;10.56;73.96
69200;BME280;56313;49.804;9.952;2022-11-20T22:46:23;98182.34;;;9.94;73.23
69200;BME280;56313;49.804;9.952;2022-11-20T22:48:51;98180.53;;;10.03;75.03
69200;BME280;56313;49.804;9.952;2022-11-20T22:51:19;98185.25;;;10.08;73.12
69200;BME280;56313;49.804;9.952;2022-11-20T22:53:45;98181.81;;;7.99;75.18
69200;BME280;56313;49.804;9.952;2022-11-20T22:56:12;98188.91;;;9.25;77.71
69200;BME280;56313;49.804;9.952;2022-11-20T22:58:39;98186.47;;;8.22;81.86
69200;BME280;56313;49.804;9.952;2022-11-20T23:01:16;98185.47;;;8.83;75.85
69200;BME280;56313;49.804;9.952;2022-11-20T23:03:44;98190.47;;;7.38;74.72
69200;BME280;56313;49.804;9.952;2022-11-20T23:06:11;98190.28;;;7.31;74.66
69200;BME280;56313;49.804;9.952;2022-11-20T23:08:38;98179.84;;;10.09;76.04
69200;BME280;56313;49.804;9.952;2022-11-20T23:11:18;98184.09;;;8.37;76.87
69200;BME280;56313;49.804;9.952;2022-11-20T23:13:45;98193.25;;;10.06;77.64
69200;BME280;56313;49.804;9.952;2022-11-20T23:16:17;98192.59;;;10.12;76.96
69200;BME280;56313;49.804;9.952;2022-11-20T23:18:46;98191.66;;;8.98;71.54
69200;BME280;56313;49.804;9.952;2022-11-20T23:21:17;98192.41;;;9.66;70.05
69200;BME280;56313;49.804;9.952;2022-11-20T23:23:46;98193.53;;;10.51;74.50
69200;BME280;56313;49.804;9.952;2022-11-20T23:26:13;98190.03;;;10.27;76.02
69200;BME280;56313;49.804;9.952;2022-11-20T23:28:40;98198.97;;;10.73;73.91
69200;BME280;56313;49.804;9.952;2022-11-20T23:31:07;98193.75;;;10.73;73.81
69200;BME280;56313;49.804;9.952;2022-11-20T23:33:41;98189.66;;;9.59;75.61
69200;BME280;56313;49.804;9.952;2022-11-20T23:36:08;98183.09;;;10.11;75.77
69200;BME280;56313;49.804;9.952;2022-11-20T23:38:34;98187.22;;;9.49;71.41
69200;BME280;56313;49.804;9.952;2022-11-20T23:41:02;98171.09;;;9.20;69.97
69200;BME280;56313;49.804;9.952;2022-11-20T23:43:28;98176.88;;;10.52;75.28
69200;BME280;56313;49.804;9.952;2022-11-20T23:45:56;98179.72;;;10.66;74.17
69200;BME280;56313;49.804;9.952;2022-11-20T23:48:24;98172.41;;;10.53;74.09
69200;BME280;56313;49.804;9.952;2022-11-20T23:50:50;98179.81;;;10.73;73.55
69200;BME280;56313;49.804;9.952;2022-11-20T23:53:16;98172.13;;;10.16;75.10
69200;BME280;56313;49.804;9.952;2022-11-20T23:55:46;98179.25;;;8.59;71.34
69200;BME280;56313;49.804;9.952;2022-11-20T23:58:12;98168.00;;;9.17;75.94
